Startpagina
METAR-TAF:

METAR-TAF

Vliegvelden :

Panama-stad, Panama

breedte: 08-59N, lengte: 079-31W, hoogte: 13 m

Actueel weer

Dit bericht is 22 minuten geleden gemaakt, om 08:00 UTC
Weinig wind
Temperatuur 23°C
Vochtigheid 100%
Druk 1011 hPa

METAR: MPMG 210800Z AUTO 00000KT //// R01///// // BKN096/// 23/23 Q1011

Tijdstip: 03:22 (08:22 UTC)

Verwachting

Dit bericht is 9 uur en het 22 minuten geleden gemaakt, om 23:00 UTC
Verwachting geldig van 21 om 00 UTC tot 21 om 12 UTC
Wind 4 kt uit het westnoordwesten
Zicht 10 km of meer
Verspreide wolken op 2000 ft

TAF: MPMG 202300Z 2100/2112 30004KT 9999 SCT020

Waarnemingen en weersverwachtingen van meer dan 4000 vliegvelden (METAR en TAF).

De beschikbare stations zijn de gele en rode punten op de kaart.

Ga met uw muis naar het station om de naam te zien.

Klik dan om waarnemingen en weersverwachtingen te zien.

kaart wijzigen: klik op de groene knoppen met een zwart kruis om in te zoomen, op de groene knop met een streepje om uit te zoomen of op de groene pijlen voor aangrenzende kaarten.


METAR-TAF: